sensor_id;sensor_type;location;lat;lon;timestamp;P1;durP1;ratioP1;P2;durP2;ratioP2
54745;SDS011;40640;48.130;11.356;2023-06-19T00:01:24;15.30;;;9.38;;
54745;SDS011;40640;48.130;11.356;2023-06-19T00:05:27;13.25;;;8.65;;
54745;SDS011;40640;48.130;11.356;2023-06-19T00:09:32;12.70;;;8.85;;
54745;SDS011;40640;48.130;11.356;2023-06-19T00:13:35;11.48;;;8.52;;
54745;SDS011;40640;48.130;11.356;2023-06-19T00:17:38;12.45;;;8.88;;
54745;SDS011;40640;48.130;11.356;2023-06-19T00:21:41;13.95;;;9.15;;
54745;SDS011;40640;48.130;11.356;2023-06-19T00:25:46;11.32;;;7.88;;
54745;SDS011;40640;48.130;11.356;2023-06-19T00:29:49;13.00;;;8.65;;
54745;SDS011;40640;48.130;11.356;2023-06-19T00:33:53;11.45;;;8.48;;
54745;SDS011;40640;48.130;11.356;2023-06-19T00:37:59;12.05;;;8.15;;
54745;SDS011;40640;48.130;11.356;2023-06-19T00:42:04;14.02;;;8.82;;
54745;SDS011;40640;48.130;11.356;2023-06-19T00:46:07;13.57;;;8.75;;
54745;SDS011;40640;48.130;11.356;2023-06-19T00:50:10;13.18;;;8.68;;
54745;SDS011;40640;48.130;11.356;2023-06-19T00:54:14;13.95;;;9.45;;
54745;SDS011;40640;48.130;11.356;2023-06-19T00:58:20;12.55;;;8.73;;
54745;SDS011;40640;48.130;11.356;2023-06-19T01:02:23;11.80;;;8.48;;
54745;SDS011;40640;48.130;11.356;2023-06-19T01:06:27;12.65;;;9.68;;
54745;SDS011;40640;48.130;11.356;2023-06-19T01:10:40;11.70;;;8.52;;
54745;SDS011;40640;48.130;11.356;2023-06-19T01:14:48;12.13;;;8.52;;
54745;SDS011;40640;48.130;11.356;2023-06-19T01:18:57;11.52;;;8.82;;
54745;SDS011;40640;48.130;11.356;2023-06-19T01:23:06;11.00;;;8.60;;
54745;SDS011;40640;48.130;11.356;2023-06-19T01:27:10;10.90;;;8.32;;
54745;SDS011;40640;48.130;11.356;2023-06-19T01:31:15;18.55;;;8.60;;
54745;SDS011;40640;48.130;11.356;2023-06-19T01:35:23;16.95;;;9.07;;
54745;SDS011;40640;48.130;11.356;2023-06-19T01:39:33;12.52;;;8.93;;
54745;SDS011;40640;48.130;11.356;2023-06-19T01:43:38;14.32;;;9.20;;
54745;SDS011;40640;48.130;11.356;2023-06-19T01:47:41;13.35;;;8.75;;
54745;SDS011;40640;48.130;11.356;2023-06-19T01:51:45;10.77;;;8.52;;
54745;SDS011;40640;48.130;11.356;2023-06-19T01:55:49;12.30;;;9.02;;
54745;SDS011;40640;48.130;11.356;2023-06-19T01:59:52;12.18;;;9.07;;
54745;SDS011;40640;48.130;11.356;2023-06-19T02:03:56;12.75;;;9.32;;
54745;SDS011;40640;48.130;11.356;2023-06-19T02:07:59;16.02;;;9.60;;
54745;SDS011;40640;48.130;11.356;2023-06-19T02:12:04;11.77;;;9.32;;
54745;SDS011;40640;48.130;11.356;2023-06-19T02:16:07;17.55;;;10.20;;
54745;SDS011;40640;48.130;11.356;2023-06-19T02:20:11;11.57;;;8.88;;
54745;SDS011;40640;48.130;11.356;2023-06-19T02:24:14;17.02;;;9.52;;
54745;SDS011;40640;48.130;11.356;2023-06-19T02:28:18;11.38;;;8.38;;
54745;SDS011;40640;48.130;11.356;2023-06-19T02:32:21;22.33;;;9.27;;
54745;SDS011;40640;48.130;11.356;2023-06-19T02:36:24;13.73;;;9.07;;
54745;SDS011;40640;48.130;11.356;2023-06-19T02:40:28;15.20;;;10.30;;
54745;SDS011;40640;48.130;11.356;2023-06-19T02:44:32;15.80;;;9.65;;
54745;SDS011;40640;48.130;11.356;2023-06-19T02:48:36;13.02;;;9.30;;
54745;SDS011;40640;48.130;11.356;2023-06-19T02:52:41;15.63;;;10.60;;
54745;SDS011;40640;48.130;11.356;2023-06-19T02:56:44;14.05;;;8.90;;
54745;SDS011;40640;48.130;11.356;2023-06-19T03:04:55;11.25;;;8.98;;
54745;SDS011;40640;48.130;11.356;2023-06-19T03:08:58;11.25;;;8.60;;
54745;SDS011;40640;48.130;11.356;2023-06-19T03:13:01;12.10;;;9.18;;
54745;SDS011;40640;48.130;11.356;2023-06-19T03:17:08;15.30;;;9.20;;
54745;SDS011;40640;48.130;11.356;2023-06-19T03:21:11;12.02;;;8.48;;
54745;SDS011;40640;48.130;11.356;2023-06-19T03:25:16;13.70;;;8.95;;
54745;SDS011;40640;48.130;11.356;2023-06-19T03:29:22;14.18;;;9.02;;
54745;SDS011;40640;48.130;11.356;2023-06-19T03:33:39;13.53;;;8.57;;
54745;SDS011;40640;48.130;11.356;2023-06-19T03:37:43;9.93;;;8.25;;
54745;SDS011;40640;48.130;11.356;2023-06-19T03:41:47;16.65;;;8.90;;
54745;SDS011;40640;48.130;11.356;2023-06-19T03:45:50;13.25;;;8.80;;
54745;SDS011;40640;48.130;11.356;2023-06-19T03:49:54;12.13;;;8.88;;
54745;SDS011;40640;48.130;11.356;2023-06-19T03:54:08;14.07;;;9.02;;
54745;SDS011;40640;48.130;11.356;2023-06-19T03:58:10;13.25;;;9.07;;
54745;SDS011;40640;48.130;11.356;2023-06-19T04:02:14;12.68;;;8.98;;
54745;SDS011;40640;48.130;11.356;2023-06-19T04:06:18;14.80;;;9.23;;
54745;SDS011;40640;48.130;11.356;2023-06-19T04:10:21;12.63;;;8.65;;
54745;SDS011;40640;48.130;11.356;2023-06-19T04:14:24;11.70;;;9.10;;
54745;SDS011;40640;48.130;11.356;2023-06-19T04:18:29;17.50;;;9.27;;
54745;SDS011;40640;48.130;11.356;2023-06-19T04:22:33;14.00;;;9.07;;
54745;SDS011;40640;48.130;11.356;2023-06-19T04:26:36;13.10;;;8.55;;
54745;SDS011;40640;48.130;11.356;2023-06-19T04:30:39;11.43;;;8.52;;
54745;SDS011;40640;48.130;11.356;2023-06-19T04:34:42;16.13;;;9.18;;
54745;SDS011;40640;48.130;11.356;2023-06-19T04:38:48;14.52;;;8.80;;
54745;SDS011;40640;48.130;11.356;2023-06-19T04:42:53;15.05;;;8.93;;
54745;SDS011;40640;48.130;11.356;2023-06-19T04:46:56;9.93;;;8.35;;
54745;SDS011;40640;48.130;11.356;2023-06-19T04:51:02;11.60;;;8.52;;
54745;SDS011;40640;48.130;11.356;2023-06-19T04:55:07;11.88;;;9.00;;
54745;SDS011;40640;48.130;11.356;2023-06-19T04:59:11;13.67;;;7.63;;
54745;SDS011;40640;48.130;11.356;2023-06-19T05:03:14;9.13;;;6.88;;
54745;SDS011;40640;48.130;11.356;2023-06-19T05:07:18;16.63;;;6.22;;
54745;SDS011;40640;48.130;11.356;2023-06-19T05:11:22;15.60;;;7.10;;
54745;SDS011;40640;48.130;11.356;2023-06-19T05:15:25;11.57;;;6.60;;
54745;SDS011;40640;48.130;11.356;2023-06-19T05:19:29;9.23;;;7.00;;
54745;SDS011;40640;48.130;11.356;2023-06-19T05:23:31;14.20;;;7.15;;
54745;SDS011;40640;48.130;11.356;2023-06-19T05:27:36;8.27;;;6.20;;
54745;SDS011;40640;48.130;11.356;2023-06-19T05:31:39;8.23;;;6.28;;
54745;SDS011;40640;48.130;11.356;2023-06-19T05:35:42;7.00;;;5.90;;
54745;SDS011;40640;48.130;11.356;2023-06-19T05:39:52;8.60;;;6.20;;
54745;SDS011;40640;48.130;11.356;2023-06-19T05:43:56;11.30;;;6.22;;
54745;SDS011;40640;48.130;11.356;2023-06-19T05:47:59;11.57;;;5.93;;
54745;SDS011;40640;48.130;11.356;2023-06-19T05:52:02;9.98;;;6.30;;
54745;SDS011;40640;48.130;11.356;2023-06-19T05:56:06;10.35;;;6.10;;
54745;SDS011;40640;48.130;11.356;2023-06-19T06:00:11;10.50;;;5.97;;
54745;SDS011;40640;48.130;11.356;2023-06-19T06:04:15;11.85;;;6.15;;
54745;SDS011;40640;48.130;11.356;2023-06-19T06:08:18;11.20;;;6.68;;
54745;SDS011;40640;48.130;11.356;2023-06-19T06:12:21;12.23;;;6.18;;
54745;SDS011;40640;48.130;11.356;2023-06-19T06:16:26;8.13;;;5.80;;
54745;SDS011;40640;48.130;11.356;2023-06-19T06:20:29;9.35;;;6.05;;
54745;SDS011;40640;48.130;11.356;2023-06-19T06:24:31;10.95;;;6.68;;
54745;SDS011;40640;48.130;11.356;2023-06-19T06:28:35;9.30;;;6.07;;
54745;SDS011;40640;48.130;11.356;2023-06-19T06:32:39;11.32;;;6.47;;
54745;SDS011;40640;48.130;11.356;2023-06-19T06:36:42;8.98;;;5.90;;
54745;SDS011;40640;48.130;11.356;2023-06-19T06:41:05;10.77;;;5.43;;
54745;SDS011;40640;48.130;11.356;2023-06-19T06:45:08;11.15;;;6.15;;
54745;SDS011;40640;48.130;11.356;2023-06-19T06:49:13;10.52;;;6.35;;
54745;SDS011;40640;48.130;11.356;2023-06-19T06:53:18;9.85;;;6.13;;
54745;SDS011;40640;48.130;11.356;2023-06-19T06:57:21;9.50;;;6.28;;
54745;SDS011;40640;48.130;11.356;2023-06-19T07:01:23;10.02;;;5.80;;
54745;SDS011;40640;48.130;11.356;2023-06-19T07:05:28;8.88;;;6.20;;
54745;SDS011;40640;48.130;11.356;2023-06-19T07:09:31;14.45;;;5.70;;
54745;SDS011;40640;48.130;11.356;2023-06-19T07:13:34;6.75;;;5.65;;
54745;SDS011;40640;48.130;11.356;2023-06-19T07:17:37;9.60;;;5.60;;
54745;SDS011;40640;48.130;11.356;2023-06-19T07:21:41;6.53;;;5.57;;
54745;SDS011;40640;48.130;11.356;2023-06-19T07:25:45;5.60;;;5.00;;
54745;SDS011;40640;48.130;11.356;2023-06-19T07:29:48;5.20;;;4.57;;
54745;SDS011;40640;48.130;11.356;2023-06-19T07:33:50;10.88;;;4.97;;
54745;SDS011;40640;48.130;11.356;2023-06-19T07:37:55;6.97;;;4.55;;
54745;SDS011;40640;48.130;11.356;2023-06-19T07:41:58;5.32;;;4.30;;
54745;SDS011;40640;48.130;11.356;2023-06-19T07:46:00;6.88;;;5.00;;
54745;SDS011;40640;48.130;11.356;2023-06-19T07:50:04;12.77;;;5.95;;
54745;SDS011;40640;48.130;11.356;2023-06-19T07:54:09;7.30;;;5.30;;
54745;SDS011;40640;48.130;11.356;2023-06-19T07:58:12;10.77;;;4.53;;
54745;SDS011;40640;48.130;11.356;2023-06-19T08:02:15;4.78;;;4.15;;
54745;SDS011;40640;48.130;11.356;2023-06-19T08:06:18;8.85;;;4.60;;
54745;SDS011;40640;48.130;11.356;2023-06-19T08:10:22;5.38;;;3.92;;
54745;SDS011;40640;48.130;11.356;2023-06-19T08:14:25;8.10;;;4.28;;
54745;SDS011;40640;48.130;11.356;2023-06-19T08:18:28;10.77;;;4.60;;
54745;SDS011;40640;48.130;11.356;2023-06-19T08:22:31;6.70;;;4.45;;
54745;SDS011;40640;48.130;11.356;2023-06-19T08:26:35;5.13;;;3.15;;
54745;SDS011;40640;48.130;11.356;2023-06-19T08:30:38;7.68;;;3.42;;
54745;SDS011;40640;48.130;11.356;2023-06-19T08:34:41;6.55;;;3.72;;
54745;SDS011;40640;48.130;11.356;2023-06-19T08:38:44;5.60;;;3.83;;
54745;SDS011;40640;48.130;11.356;2023-06-19T08:42:52;4.68;;;4.13;;
54745;SDS011;40640;48.130;11.356;2023-06-19T08:46:57;12.48;;;4.05;;
54745;SDS011;40640;48.130;11.356;2023-06-19T08:51:00;9.05;;;4.20;;
54745;SDS011;40640;48.130;11.356;2023-06-19T08:55:03;8.77;;;3.95;;
54745;SDS011;40640;48.130;11.356;2023-06-19T08:59:11;5.95;;;3.58;;
54745;SDS011;40640;48.130;11.356;2023-06-19T09:03:19;8.48;;;4.15;;
54745;SDS011;40640;48.130;11.356;2023-06-19T09:07:23;5.57;;;3.90;;
54745;SDS011;40640;48.130;11.356;2023-06-19T09:11:26;4.10;;;3.80;;
54745;SDS011;40640;48.130;11.356;2023-06-19T09:15:31;8.57;;;4.22;;
54745;SDS011;40640;48.130;11.356;2023-06-19T09:19:35;5.93;;;4.25;;
54745;SDS011;40640;48.130;11.356;2023-06-19T09:23:39;4.05;;;3.65;;
54745;SDS011;40640;48.130;11.356;2023-06-19T09:27:43;7.72;;;3.92;;
54745;SDS011;40640;48.130;11.356;2023-06-19T09:31:47;7.18;;;3.78;;
54745;SDS011;40640;48.130;11.356;2023-06-19T09:35:50;7.80;;;3.45;;
54745;SDS011;40640;48.130;11.356;2023-06-19T09:39:53;4.57;;;3.70;;
54745;SDS011;40640;48.130;11.356;2023-06-19T09:43:57;9.40;;;3.53;;
54745;SDS011;40640;48.130;11.356;2023-06-19T09:52:31;3.42;;;2.75;;
54745;SDS011;40640;48.130;11.356;2023-06-19T09:56:40;6.90;;;2.60;;
54745;SDS011;40640;48.130;11.356;2023-06-19T10:00:44;2.85;;;2.55;;
54745;SDS011;40640;48.130;11.356;2023-06-19T10:04:51;5.87;;;2.83;;
54745;SDS011;40640;48.130;11.356;2023-06-19T10:09:05;6.53;;;2.92;;
54745;SDS011;40640;48.130;11.356;2023-06-19T10:13:12;5.30;;;2.92;;
54745;SDS011;40640;48.130;11.356;2023-06-19T10:17:16;4.07;;;2.67;;
54745;SDS011;40640;48.130;11.356;2023-06-19T10:21:21;3.17;;;2.55;;
54745;SDS011;40640;48.130;11.356;2023-06-19T10:25:26;3.60;;;3.10;;
54745;SDS011;40640;48.130;11.356;2023-06-19T10:29:40;4.18;;;2.80;;
54745;SDS011;40640;48.130;11.356;2023-06-19T10:34:00;3.65;;;2.90;;
54745;SDS011;40640;48.130;11.356;2023-06-19T10:38:07;3.50;;;3.15;;
54745;SDS011;40640;48.130;11.356;2023-06-19T10:42:10;4.65;;;3.05;;
54745;SDS011;40640;48.130;11.356;2023-06-19T10:46:13;3.72;;;3.20;;
54745;SDS011;40640;48.130;11.356;2023-06-19T10:55:24;6.07;;;3.83;;
54745;SDS011;40640;48.130;11.356;2023-06-19T10:59:27;4.60;;;3.30;;
54745;SDS011;40640;48.130;11.356;2023-06-19T11:04:19;4.28;;;3.35;;
54745;SDS011;40640;48.130;11.356;2023-06-19T11:08:25;6.15;;;3.47;;
54745;SDS011;40640;48.130;11.356;2023-06-19T11:12:29;5.60;;;3.60;;
54745;SDS011;40640;48.130;11.356;2023-06-19T11:16:33;3.83;;;3.38;;
54745;SDS011;40640;48.130;11.356;2023-06-19T11:20:43;6.07;;;3.67;;
54745;SDS011;40640;48.130;11.356;2023-06-19T11:24:46;6.53;;;3.08;;
54745;SDS011;40640;48.130;11.356;2023-06-19T11:28:51;3.92;;;3.05;;
54745;SDS011;40640;48.130;11.356;2023-06-19T11:32:55;5.70;;;3.25;;
54745;SDS011;40640;48.130;11.356;2023-06-19T11:36:58;4.95;;;3.35;;
54745;SDS011;40640;48.130;11.356;2023-06-19T11:41:01;8.02;;;3.53;;
54745;SDS011;40640;48.130;11.356;2023-06-19T11:45:07;3.40;;;3.10;;
54745;SDS011;40640;48.130;11.356;2023-06-19T11:49:11;3.72;;;2.67;;
54745;SDS011;40640;48.130;11.356;2023-06-19T11:53:15;3.38;;;2.83;;
54745;SDS011;40640;48.130;11.356;2023-06-19T11:57:17;3.70;;;3.40;;
54745;SDS011;40640;48.130;11.356;2023-06-19T12:01:22;9.35;;;4.10;;
54745;SDS011;40640;48.130;11.356;2023-06-19T12:05:25;6.10;;;4.47;;
54745;SDS011;40640;48.130;11.356;2023-06-19T12:09:27;8.05;;;4.90;;
54745;SDS011;40640;48.130;11.356;2023-06-19T12:13:30;5.95;;;4.85;;
54745;SDS011;40640;48.130;11.356;2023-06-19T12:17:34;6.40;;;4.95;;
54745;SDS011;40640;48.130;11.356;2023-06-19T12:21:38;5.60;;;5.10;;
54745;SDS011;40640;48.130;11.356;2023-06-19T12:25:43;6.45;;;5.88;;
54745;SDS011;40640;48.130;11.356;2023-06-19T12:29:46;5.63;;;5.10;;
54745;SDS011;40640;48.130;11.356;2023-06-19T12:33:50;5.20;;;4.80;;
54745;SDS011;40640;48.130;11.356;2023-06-19T12:37:53;6.70;;;4.70;;
54745;SDS011;40640;48.130;11.356;2023-06-19T12:41:56;5.25;;;4.38;;
54745;SDS011;40640;48.130;11.356;2023-06-19T12:45:59;4.60;;;4.30;;
54745;SDS011;40640;48.130;11.356;2023-06-19T12:50:05;4.20;;;3.90;;
54745;SDS011;40640;48.130;11.356;2023-06-19T12:54:09;3.88;;;3.58;;
54745;SDS011;40640;48.130;11.356;2023-06-19T12:58:11;5.03;;;3.40;;
54745;SDS011;40640;48.130;11.356;2023-06-19T13:02:14;3.55;;;3.33;;
54745;SDS011;40640;48.130;11.356;2023-06-19T13:06:19;3.20;;;2.90;;
54745;SDS011;40640;48.130;11.356;2023-06-19T13:10:22;4.70;;;2.72;;
54745;SDS011;40640;48.130;11.356;2023-06-19T13:14:26;4.32;;;3.08;;
54745;SDS011;40640;48.130;11.356;2023-06-19T13:18:29;2.90;;;2.70;;
54745;SDS011;40640;48.130;11.356;2023-06-19T13:22:33;5.22;;;2.95;;
54745;SDS011;40640;48.130;11.356;2023-06-19T13:26:36;3.25;;;2.95;;
54745;SDS011;40640;48.130;11.356;2023-06-19T13:30:39;3.25;;;2.80;;
54745;SDS011;40640;48.130;11.356;2023-06-19T13:34:42;3.40;;;2.80;;
54745;SDS011;40640;48.130;11.356;2023-06-19T13:38:46;3.25;;;2.88;;
54745;SDS011;40640;48.130;11.356;2023-06-19T13:42:49;3.35;;;3.00;;
54745;SDS011;40640;48.130;11.356;2023-06-19T13:46:52;3.40;;;3.00;;
54745;SDS011;40640;48.130;11.356;2023-06-19T13:50:56;3.28;;;2.97;;
54745;SDS011;40640;48.130;11.356;2023-06-19T13:55:02;6.03;;;3.40;;
54745;SDS011;40640;48.130;11.356;2023-06-19T14:03:08;5.57;;;3.53;;
54745;SDS011;40640;48.130;11.356;2023-06-19T14:07:11;3.50;;;3.20;;
54745;SDS011;40640;48.130;11.356;2023-06-19T14:11:15;3.88;;;3.53;;
54745;SDS011;40640;48.130;11.356;2023-06-19T14:19:22;6.65;;;2.85;;
54745;SDS011;40640;48.130;11.356;2023-06-19T14:23:25;4.55;;;3.17;;
54745;SDS011;40640;48.130;11.356;2023-06-19T14:27:30;7.78;;;4.00;;
54745;SDS011;40640;48.130;11.356;2023-06-19T14:31:34;4.43;;;3.40;;
54745;SDS011;40640;48.130;11.356;2023-06-19T14:35:37;3.50;;;3.20;;
54745;SDS011;40640;48.130;11.356;2023-06-19T14:39:40;3.65;;;3.33;;
54745;SDS011;40640;48.130;11.356;2023-06-19T14:43:44;3.30;;;3.00;;
54745;SDS011;40640;48.130;11.356;2023-06-19T14:47:47;3.50;;;3.20;;
54745;SDS011;40640;48.130;11.356;2023-06-19T14:51:50;3.47;;;3.17;;
54745;SDS011;40640;48.130;11.356;2023-06-19T14:55:53;4.40;;;3.33;;
54745;SDS011;40640;48.130;11.356;2023-06-19T14:59:57;3.47;;;3.10;;
54745;SDS011;40640;48.130;11.356;2023-06-19T15:04:00;3.97;;;3.10;;
54745;SDS011;40640;48.130;11.356;2023-06-19T15:08:03;6.35;;;3.45;;
54745;SDS011;40640;48.130;11.356;2023-06-19T15:12:07;4.85;;;3.67;;
54745;SDS011;40640;48.130;11.356;2023-06-19T15:16:12;4.72;;;3.17;;
54745;SDS011;40640;48.130;11.356;2023-06-19T15:20:15;5.00;;;3.28;;
54745;SDS011;40640;48.130;11.356;2023-06-19T15:24:19;4.88;;;3.25;;
54745;SDS011;40640;48.130;11.356;2023-06-19T15:28:22;3.83;;;3.47;;
54745;SDS011;40640;48.130;11.356;2023-06-19T15:32:27;4.32;;;3.38;;
54745;SDS011;40640;48.130;11.356;2023-06-19T15:36:30;5.53;;;3.40;;
54745;SDS011;40640;48.130;11.356;2023-06-19T15:40:33;4.78;;;3.78;;
54745;SDS011;40640;48.130;11.356;2023-06-19T15:44:36;3.42;;;3.08;;
54745;SDS011;40640;48.130;11.356;2023-06-19T15:48:40;5.93;;;3.30;;
54745;SDS011;40640;48.130;11.356;2023-06-19T15:56:49;3.90;;;3.50;;
54745;SDS011;40640;48.130;11.356;2023-06-19T16:00:52;3.78;;;3.17;;
54745;SDS011;40640;48.130;11.356;2023-06-19T16:04:57;4.22;;;3.42;;
54745;SDS011;40640;48.130;11.356;2023-06-19T16:09:00;8.98;;;3.83;;
54745;SDS011;40640;48.130;11.356;2023-06-19T16:13:03;5.65;;;3.40;;
54745;SDS011;40640;48.130;11.356;2023-06-19T16:17:06;3.55;;;3.22;;
54745;SDS011;40640;48.130;11.356;2023-06-19T16:21:10;4.05;;;3.65;;
54745;SDS011;40640;48.130;11.356;2023-06-19T16:25:13;4.38;;;3.97;;
54745;SDS011;40640;48.130;11.356;2023-06-19T16:29:16;4.45;;;3.95;;
54745;SDS011;40640;48.130;11.356;2023-06-19T16:33:19;5.63;;;4.05;;
54745;SDS011;40640;48.130;11.356;2023-06-19T16:37:24;7.78;;;4.10;;
54745;SDS011;40640;48.130;11.356;2023-06-19T16:41:27;4.32;;;3.70;;
54745;SDS011;40640;48.130;11.356;2023-06-19T16:45:29;4.45;;;3.88;;
54745;SDS011;40640;48.130;11.356;2023-06-19T16:49:32;7.40;;;4.68;;
54745;SDS011;40640;48.130;11.356;2023-06-19T16:53:37;10.13;;;6.70;;
54745;SDS011;40640;48.130;11.356;2023-06-19T16:57:40;16.38;;;5.90;;
54745;SDS011;40640;48.130;11.356;2023-06-19T17:01:43;5.10;;;4.40;;
54745;SDS011;40640;48.130;11.356;2023-06-19T17:05:47;4.13;;;3.70;;
54745;SDS011;40640;48.130;11.356;2023-06-19T17:09:51;6.20;;;3.72;;
54745;SDS011;40640;48.130;11.356;2023-06-19T17:13:54;4.72;;;4.00;;
54745;SDS011;40640;48.130;11.356;2023-06-19T17:17:57;4.97;;;3.67;;
54745;SDS011;40640;48.130;11.356;2023-06-19T17:22:00;6.53;;;3.78;;
54745;SDS011;40640;48.130;11.356;2023-06-19T17:26:04;4.88;;;4.07;;
54745;SDS011;40640;48.130;11.356;2023-06-19T17:30:07;5.40;;;3.83;;
54745;SDS011;40640;48.130;11.356;2023-06-19T17:34:12;4.68;;;3.80;;
54745;SDS011;40640;48.130;11.356;2023-06-19T17:38:15;5.78;;;3.88;;
54745;SDS011;40640;48.130;11.356;2023-06-19T17:42:19;7.35;;;4.00;;
54745;SDS011;40640;48.130;11.356;2023-06-19T17:46:22;5.07;;;3.80;;
54745;SDS011;40640;48.130;11.356;2023-06-19T17:50:25;4.85;;;3.70;;
54745;SDS011;40640;48.130;11.356;2023-06-19T17:54:28;6.63;;;4.07;;
54745;SDS011;40640;48.130;11.356;2023-06-19T17:58:33;8.85;;;4.30;;
54745;SDS011;40640;48.130;11.356;2023-06-19T18:02:36;8.32;;;4.50;;
54745;SDS011;40640;48.130;11.356;2023-06-19T18:06:39;9.45;;;4.90;;
54745;SDS011;40640;48.130;11.356;2023-06-19T18:10:42;5.72;;;4.22;;
54745;SDS011;40640;48.130;11.356;2023-06-19T18:14:47;7.47;;;4.55;;
54745;SDS011;40640;48.130;11.356;2023-06-19T18:18:50;7.80;;;4.10;;
54745;SDS011;40640;48.130;11.356;2023-06-19T18:22:52;5.28;;;4.50;;
54745;SDS011;40640;48.130;11.356;2023-06-19T18:26:55;7.57;;;4.57;;
54745;SDS011;40640;48.130;11.356;2023-06-19T18:31:00;11.02;;;4.25;;
54745;SDS011;40640;48.130;11.356;2023-06-19T18:35:03;7.50;;;4.45;;
54745;SDS011;40640;48.130;11.356;2023-06-19T18:39:06;5.93;;;4.13;;
54745;SDS011;40640;48.130;11.356;2023-06-19T18:43:09;6.65;;;4.35;;
54745;SDS011;40640;48.130;11.356;2023-06-19T18:47:14;5.32;;;4.22;;
54745;SDS011;40640;48.130;11.356;2023-06-19T18:51:18;8.35;;;4.78;;
54745;SDS011;40640;48.130;11.356;2023-06-19T18:55:21;8.07;;;4.20;;
54745;SDS011;40640;48.130;11.356;2023-06-19T18:59:24;7.43;;;4.38;;
54745;SDS011;40640;48.130;11.356;2023-06-19T19:03:28;7.80;;;4.72;;
54745;SDS011;40640;48.130;11.356;2023-06-19T19:07:31;5.85;;;4.25;;
54745;SDS011;40640;48.130;11.356;2023-06-19T19:11:35;14.45;;;4.65;;
54745;SDS011;40640;48.130;11.356;2023-06-19T19:15:38;6.20;;;4.70;;
54745;SDS011;40640;48.130;11.356;2023-06-19T19:19:42;11.50;;;4.50;;
54745;SDS011;40640;48.130;11.356;2023-06-19T19:23:45;5.40;;;4.68;;
54745;SDS011;40640;48.130;11.356;2023-06-19T19:27:48;5.68;;;4.72;;
54745;SDS011;40640;48.130;11.356;2023-06-19T19:31:51;8.48;;;4.68;;
54745;SDS011;40640;48.130;11.356;2023-06-19T19:35:56;9.75;;;5.30;;
54745;SDS011;40640;48.130;11.356;2023-06-19T19:39:59;9.68;;;4.82;;
54745;SDS011;40640;48.130;11.356;2023-06-19T19:44:03;5.28;;;4.75;;
54745;SDS011;40640;48.130;11.356;2023-06-19T19:48:06;6.45;;;4.60;;
54745;SDS011;40640;48.130;11.356;2023-06-19T19:52:10;10.35;;;5.10;;
54745;SDS011;40640;48.130;11.356;2023-06-19T19:56:13;9.93;;;5.20;;
54745;SDS011;40640;48.130;11.356;2023-06-19T20:00:16;7.78;;;5.35;;
54745;SDS011;40640;48.130;11.356;2023-06-19T20:04:19;6.85;;;5.38;;
54745;SDS011;40640;48.130;11.356;2023-06-19T20:08:24;7.80;;;5.60;;
54745;SDS011;40640;48.130;11.356;2023-06-19T20:12:26;8.25;;;6.30;;
54745;SDS011;40640;48.130;11.356;2023-06-19T20:16:29;10.38;;;6.30;;
54745;SDS011;40640;48.130;11.356;2023-06-19T20:20:34;7.05;;;6.00;;
54745;SDS011;40640;48.130;11.356;2023-06-19T20:24:38;7.75;;;6.60;;
54745;SDS011;40640;48.130;11.356;2023-06-19T20:28:41;7.63;;;6.10;;
54745;SDS011;40640;48.130;11.356;2023-06-19T20:32:44;13.00;;;6.28;;
54745;SDS011;40640;48.130;11.356;2023-06-19T20:36:48;14.80;;;6.95;;
54745;SDS011;40640;48.130;11.356;2023-06-19T20:40:53;10.70;;;6.80;;
54745;SDS011;40640;48.130;11.356;2023-06-19T20:44:55;8.88;;;6.95;;
54745;SDS011;40640;48.130;11.356;2023-06-19T20:48:58;8.43;;;6.03;;
54745;SDS011;40640;48.130;11.356;2023-06-19T20:53:01;8.32;;;6.13;;
54745;SDS011;40640;48.130;11.356;2023-06-19T20:57:06;17.75;;;4.47;;
54745;SDS011;40640;48.130;11.356;2023-06-19T21:01:09;7.68;;;3.60;;
54745;SDS011;40640;48.130;11.356;2023-06-19T21:05:15;9.90;;;2.20;;
54745;SDS011;40640;48.130;11.356;2023-06-19T21:09:18;10.05;;;3.45;;
54745;SDS011;40640;48.130;11.356;2023-06-19T21:13:23;10.57;;;2.38;;
54745;SDS011;40640;48.130;11.356;2023-06-19T21:17:26;2.60;;;2.40;;
54745;SDS011;40640;48.130;11.356;2023-06-19T21:21:29;10.02;;;2.30;;
54745;SDS011;40640;48.130;11.356;2023-06-19T21:25:31;2.22;;;1.85;;
54745;SDS011;40640;48.130;11.356;2023-06-19T21:29:36;3.25;;;1.90;;
54745;SDS011;40640;48.130;11.356;2023-06-19T21:33:39;3.15;;;1.83;;
54745;SDS011;40640;48.130;11.356;2023-06-19T21:37:42;3.03;;;1.88;;
54745;SDS011;40640;48.130;11.356;2023-06-19T21:41:45;2.67;;;1.63;;
54745;SDS011;40640;48.130;11.356;2023-06-19T21:45:54;3.30;;;1.70;;
54745;SDS011;40640;48.130;11.356;2023-06-19T21:49:58;4.13;;;1.60;;
54745;SDS011;40640;48.130;11.356;2023-06-19T21:54:01;1.58;;;1.48;;
54745;SDS011;40640;48.130;11.356;2023-06-19T21:58:04;3.55;;;1.90;;
54745;SDS011;40640;48.130;11.356;2023-06-19T22:02:08;4.05;;;2.28;;
54745;SDS011;40640;48.130;11.356;2023-06-19T22:06:12;8.23;;;2.08;;
54745;SDS011;40640;48.130;11.356;2023-06-19T22:14:43;3.03;;;1.83;;
54745;SDS011;40640;48.130;11.356;2023-06-19T22:18:49;4.35;;;2.20;;
54745;SDS011;40640;48.130;11.356;2023-06-19T22:22:51;2.88;;;2.13;;
54745;SDS011;40640;48.130;11.356;2023-06-19T22:26:54;3.10;;;2.13;;
54745;SDS011;40640;48.130;11.356;2023-06-19T22:30:57;4.93;;;2.50;;
54745;SDS011;40640;48.130;11.356;2023-06-19T22:35:02;2.97;;;2.30;;
54745;SDS011;40640;48.130;11.356;2023-06-19T22:39:05;2.85;;;2.30;;
54745;SDS011;40640;48.130;11.356;2023-06-19T22:43:09;3.60;;;2.20;;
54745;SDS011;40640;48.130;11.356;2023-06-19T22:47:11;3.25;;;2.47;;
54745;SDS011;40640;48.130;11.356;2023-06-19T22:51:16;2.80;;;2.33;;
54745;SDS011;40640;48.130;11.356;2023-06-19T22:55:19;3.50;;;2.60;;
54745;SDS011;40640;48.130;11.356;2023-06-19T22:59:22;3.97;;;2.20;;
54745;SDS011;40640;48.130;11.356;2023-06-19T23:03:25;3.40;;;2.38;;
54745;SDS011;40640;48.130;11.356;2023-06-19T23:07:30;6.35;;;2.90;;
54745;SDS011;40640;48.130;11.356;2023-06-19T23:11:33;4.63;;;2.55;;
54745;SDS011;40640;48.130;11.356;2023-06-19T23:15:36;3.40;;;2.88;;
54745;SDS011;40640;48.130;11.356;2023-06-19T23:19:39;4.25;;;2.60;;
54745;SDS011;40640;48.130;11.356;2023-06-19T23:23:45;5.95;;;3.08;;
54745;SDS011;40640;48.130;11.356;2023-06-19T23:27:48;5.13;;;2.92;;
54745;SDS011;40640;48.130;11.356;2023-06-19T23:31:51;4.35;;;3.13;;
54745;SDS011;40640;48.130;11.356;2023-06-19T23:35:54;5.47;;;3.33;;
54745;SDS011;40640;48.130;11.356;2023-06-19T23:39:59;3.78;;;3.13;;
54745;SDS011;40640;48.130;11.356;2023-06-19T23:44:02;4.13;;;2.97;;
54745;SDS011;40640;48.130;11.356;2023-06-19T23:48:06;3.65;;;2.90;;
54745;SDS011;40640;48.130;11.356;2023-06-19T23:52:08;6.00;;;2.92;;
54745;SDS011;40640;48.130;11.356;2023-06-19T23:56:13;5.40;;;3.10;;
